createdAt,value
2022-11-24T00:01:12.819Z,46.70
2022-11-24T00:03:39.825Z,48.95
2022-11-24T00:06:09.088Z,52.03
2022-11-24T00:12:24.412Z,45.53
2022-11-24T00:14:51.319Z,52.50
2022-11-24T00:17:18.205Z,49.15
2022-11-24T00:19:45.167Z,48.17
2022-11-24T00:22:12.064Z,49.80
2022-11-24T00:24:38.987Z,51.10
2022-11-24T00:27:06.381Z,53.90
2022-11-24T00:29:33.684Z,57.80
2022-11-24T00:32:02.708Z,53.47
2022-11-24T00:34:29.614Z,49.38
2022-11-24T00:36:56.544Z,50.40
2022-11-24T00:39:23.766Z,54.70
2022-11-24T00:41:50.757Z,58.67
2022-11-24T00:44:17.942Z,53.97
2022-11-24T00:46:45.012Z,54.20
2022-11-24T00:49:12.070Z,56.83
2022-11-24T00:51:38.996Z,53.17
2022-11-24T00:54:06.736Z,59.55
2022-11-24T00:56:34.085Z,49.63
2022-11-24T00:59:01.272Z,55.45
2022-11-24T01:01:31.189Z,49.35
2022-11-24T01:04:01.559Z,50.97
2022-11-24T01:06:30.033Z,48.67
2022-11-24T01:08:58.112Z,53.38
2022-11-24T01:11:54.648Z,51.53
2022-11-24T01:14:23.686Z,53.67
2022-11-24T01:16:50.796Z,57.25
2022-11-24T01:19:18.210Z,55.72
2022-11-24T01:21:45.214Z,56.78
2022-11-24T01:24:12.639Z,58.03
2022-11-24T01:26:40.033Z,59.33
2022-11-24T01:29:06.946Z,53.10
2022-11-24T01:31:33.969Z,55.92
2022-11-24T01:34:00.843Z,60.03
2022-11-24T01:36:27.763Z,58.72
2022-11-24T01:38:54.648Z,58.33
2022-11-24T01:41:24.163Z,63.25
2022-11-24T01:43:53.667Z,69.30
2022-11-24T01:46:32.985Z,52.20
2022-11-24T01:49:09.022Z,58.45
2022-11-24T01:52:04.218Z,59.53
2022-11-24T01:57:16.698Z,65.75
2022-11-24T01:59:46.612Z,60.22
2022-11-24T02:02:14.385Z,62.90
2022-11-24T02:04:41.810Z,66.30
2022-11-24T02:07:09.089Z,66.40
2022-11-24T02:09:53.067Z,65.10
2022-11-24T02:12:20.526Z,73.97
2022-11-24T02:14:47.483Z,73.22
2022-11-24T02:17:14.440Z,71.43
2022-11-24T02:19:41.423Z,67.30
2022-11-24T02:22:20.446Z,69.85
2022-11-24T02:24:56.279Z,66.28
2022-11-24T02:27:23.590Z,68.80
2022-11-24T02:29:50.811Z,59.25
2022-11-24T02:32:19.573Z,68.55
2022-11-24T02:34:46.692Z,64.45
2022-11-24T02:37:13.562Z,67.20
2022-11-24T02:39:40.422Z,66.05
2022-11-24T02:42:13.066Z,61.75
2022-11-24T02:44:45.030Z,65.43
2022-11-24T02:47:13.217Z,64.90
2022-11-24T02:49:40.348Z,66.65
2022-11-24T02:52:07.793Z,66.53
2022-11-24T02:54:34.970Z,60.42
2022-11-24T02:57:02.276Z,62.03
2022-11-24T02:59:29.219Z,61.55
2022-11-24T03:01:56.239Z,70.43
2022-11-24T03:04:23.427Z,56.50
2022-11-24T03:06:50.566Z,58.40
2022-11-24T03:09:17.476Z,60.45
2022-11-24T03:11:44.411Z,59.22
2022-11-24T03:14:11.394Z,54.28
2022-11-24T03:16:38.453Z,57.28
2022-11-24T03:19:05.541Z,60.22
2022-11-24T03:21:32.583Z,58.67
2022-11-24T03:23:59.465Z,64.60
2022-11-24T03:26:26.662Z,63.30
2022-11-24T03:28:57.593Z,53.10
2022-11-24T03:31:25.148Z,59.28
2022-11-24T03:33:52.314Z,65.43
2022-11-24T03:36:19.621Z,63.13
2022-11-24T03:38:46.575Z,70.20
2022-11-24T03:41:13.826Z,60.83
2022-11-24T03:43:44.044Z,71.25
2022-11-24T03:46:12.447Z,57.88
2022-11-24T03:48:39.466Z,68.10
2022-11-24T03:51:06.642Z,71.53
2022-11-24T03:53:34.474Z,67.75
2022-11-24T03:56:02.468Z,70.45
2022-11-24T03:58:30.217Z,70.43
2022-11-24T04:00:57.849Z,65.38
2022-11-24T04:03:25.255Z,66.72
2022-11-24T04:05:52.634Z,65.53
2022-11-24T04:08:19.976Z,76.72
2022-11-24T04:10:51.439Z,58.47
2022-11-24T04:13:21.317Z,69.57
2022-11-24T04:15:48.270Z,68.85
2022-11-24T04:18:15.687Z,72.70
2022-11-24T04:20:43.540Z,70.82
2022-11-24T04:23:11.057Z,69.88
2022-11-24T04:25:38.547Z,65.90
2022-11-24T04:28:05.456Z,71.10
2022-11-24T04:30:32.543Z,67.63
2022-11-24T04:32:59.473Z,65.50
2022-11-24T04:35:26.361Z,65.68
2022-11-24T04:37:53.744Z,69.38
2022-11-24T04:40:20.721Z,66.32
2022-11-24T04:42:54.684Z,74.50
2022-11-24T04:45:22.354Z,63.80
2022-11-24T04:47:49.219Z,66.78
2022-11-24T04:50:16.775Z,60.85
2022-11-24T04:52:43.791Z,60.72
2022-11-24T04:55:11.275Z,60.90
2022-11-24T04:57:38.395Z,74.53
2022-11-24T05:00:06.204Z,72.70
2022-11-24T05:02:33.204Z,67.95
2022-11-24T05:05:00.753Z,69.68
2022-11-24T05:07:27.925Z,70.90
2022-11-24T05:10:13.403Z,69.72
2022-11-24T05:12:40.387Z,58.75
2022-11-24T05:15:08.087Z,65.63
2022-11-24T05:17:37.802Z,71.05
2022-11-24T05:20:06.956Z,62.00
2022-11-24T05:22:33.932Z,57.25
2022-11-24T05:25:04.022Z,59.35
2022-11-24T05:27:30.854Z,56.03
2022-11-24T05:29:57.838Z,61.97
2022-11-24T05:32:24.714Z,66.63
2022-11-24T05:34:53.190Z,53.78
2022-11-24T05:37:20.976Z,49.67
2022-11-24T05:39:48.434Z,51.83
2022-11-24T05:42:46.780Z,54.45
2022-11-24T05:45:18.124Z,47.28
2022-11-24T05:47:45.376Z,52.10
2022-11-24T05:50:15.699Z,56.78
2022-11-24T05:52:43.322Z,53.65
2022-11-24T05:55:11.429Z,54.15
2022-11-24T05:57:38.495Z,50.10
2022-11-24T06:00:07.283Z,53.13
2022-11-24T06:02:34.434Z,60.00
2022-11-24T06:05:01.806Z,58.22
2022-11-24T06:07:28.849Z,56.47
2022-11-24T06:09:55.682Z,57.13
2022-11-24T06:12:22.521Z,49.45
2022-11-24T06:14:49.310Z,51.00
2022-11-24T06:17:16.142Z,67.07
2022-11-24T06:19:46.568Z,58.13
2022-11-24T06:22:13.415Z,57.10
2022-11-24T06:24:40.607Z,59.33
2022-11-24T06:27:07.786Z,62.08
2022-11-24T06:29:34.581Z,63.58
2022-11-24T06:32:01.522Z,56.88
2022-11-24T06:34:28.436Z,61.17
2022-11-24T06:36:55.732Z,50.22
2022-11-24T06:39:22.667Z,61.63
2022-11-24T06:41:52.912Z,61.42
2022-11-24T06:44:19.780Z,58.90
2022-11-24T06:46:47.007Z,60.65
2022-11-24T06:49:14.207Z,57.20
2022-11-24T06:51:41.950Z,57.13
2022-11-24T06:54:10.573Z,56.55
2022-11-24T06:56:37.836Z,53.63
2022-11-24T06:59:04.697Z,61.45
2022-11-24T07:01:32.402Z,58.40
2022-11-24T07:03:59.373Z,52.80
2022-11-24T07:06:27.101Z,53.75
2022-11-24T07:08:54.245Z,55.35
2022-11-24T07:11:23.543Z,58.58
2022-11-24T07:13:59.739Z,62.42
2022-11-24T07:16:27.709Z,60.05
2022-11-24T07:18:55.536Z,65.60
2022-11-24T07:21:24.172Z,71.10
2022-11-24T07:23:52.458Z,72.10
2022-11-24T07:26:20.267Z,65.03
2022-11-24T07:28:47.229Z,59.92
2022-11-24T07:31:19.013Z,67.63
2022-11-24T07:33:50.912Z,54.28
2022-11-24T07:36:18.421Z,56.42
2022-11-24T07:38:45.292Z,63.08
2022-11-24T07:41:13.787Z,60.45
2022-11-24T07:43:40.874Z,64.35
2022-11-24T07:46:10.523Z,67.45
2022-11-24T07:48:37.434Z,61.05
2022-11-24T07:51:05.647Z,57.63
2022-11-24T07:53:33.847Z,55.35
2022-11-24T07:56:02.269Z,62.53
2022-11-24T07:58:32.957Z,58.25
2022-11-24T08:01:08.316Z,63.35
2022-11-24T08:03:36.099Z,59.72
2022-11-24T08:08:49.910Z,59.65
2022-11-24T08:11:18.105Z,62.60
2022-11-24T08:13:45.315Z,54.75
2022-11-24T08:16:15.102Z,61.67
2022-11-24T08:18:42.757Z,65.38
2022-11-24T08:21:13.940Z,63.65
2022-11-24T08:23:42.027Z,59.40
2022-11-24T08:26:13.926Z,66.95
2022-11-24T08:28:40.899Z,72.97
2022-11-24T08:31:11.041Z,62.47
2022-11-24T08:33:39.042Z,55.90
2022-11-24T08:36:07.735Z,60.38
2022-11-24T08:38:34.580Z,65.47
2022-11-24T08:41:03.139Z,56.28
2022-11-24T08:43:30.147Z,64.18
2022-11-24T08:46:01.118Z,57.38
2022-11-24T08:48:28.510Z,65.22
2022-11-24T08:50:56.070Z,70.95
2022-11-24T08:53:23.251Z,65.30
2022-11-24T08:55:50.079Z,67.38
2022-11-24T08:58:17.190Z,69.63
2022-11-24T09:00:44.395Z,63.60
2022-11-24T09:03:12.445Z,69.93
2022-11-24T09:05:54.698Z,65.60
2022-11-24T09:08:21.550Z,61.97
2022-11-24T09:10:48.535Z,63.35
2022-11-24T09:13:15.393Z,60.75
2022-11-24T09:15:42.230Z,75.85
2022-11-24T09:18:09.156Z,52.28
2022-11-24T09:20:36.384Z,62.70
2022-11-24T09:23:03.590Z,68.60
2022-11-24T09:25:30.402Z,69.28
2022-11-24T09:27:57.472Z,73.45
2022-11-24T09:30:24.386Z,61.80
2022-11-24T09:36:39.340Z,62.35
2022-11-24T09:39:06.357Z,63.70
2022-11-24T09:41:53.939Z,57.60
2022-11-24T09:44:41.446Z,55.83
2022-11-24T09:47:26.111Z,65.57
2022-11-24T09:50:37.835Z,66.20
2022-11-24T09:53:29.528Z,67.35
2022-11-24T09:59:43.455Z,70.47
2022-11-24T10:02:12.649Z,66.90
2022-11-24T10:04:44.868Z,76.95
2022-11-24T10:07:12.244Z,65.28
2022-11-24T10:09:57.564Z,75.40
2022-11-24T10:12:45.090Z,72.78
2022-11-24T10:15:36.167Z,75.97
2022-11-24T10:18:44.715Z,60.47
2022-11-24T10:21:26.765Z,69.57
2022-11-24T10:24:33.655Z,66.28
2022-11-24T10:30:47.203Z,67.90
2022-11-24T10:33:16.899Z,73.72
2022-11-24T10:39:36.782Z,69.28
2022-11-24T10:42:11.760Z,60.15
2022-11-24T10:44:41.192Z,61.17
2022-11-24T10:47:34.187Z,60.42
2022-11-24T10:50:09.337Z,70.57
2022-11-24T10:53:00.591Z,66.55
2022-11-24T10:55:47.937Z,61.38
2022-11-24T10:58:16.956Z,71.20
2022-11-24T11:00:43.798Z,70.53
2022-11-24T11:03:32.889Z,72.25
2022-11-24T11:06:05.788Z,78.40
2022-11-24T11:08:33.107Z,72.40
2022-11-24T11:11:28.525Z,79.65
2022-11-24T11:14:04.595Z,81.68
2022-11-24T11:16:51.167Z,81.13
2022-11-24T11:19:50.861Z,84.82
2022-11-24T11:22:30.394Z,85.93
2022-11-24T11:25:27.108Z,86.10
2022-11-24T11:28:18.534Z,75.50
2022-11-24T11:31:18.044Z,82.50
2022-11-24T11:34:28.484Z,72.35
2022-11-24T11:36:59.742Z,74.32
2022-11-24T11:39:48.923Z,79.75
2022-11-24T11:43:00.098Z,76.95
2022-11-24T11:45:21.421Z,69.13
2022-11-24T11:48:03.400Z,63.95
2022-11-24T11:51:06.779Z,69.60
2022-11-24T11:53:31.411Z,63.75
2022-11-24T11:56:16.983Z,69.55
2022-11-24T11:59:11.645Z,74.72
2022-11-24T12:02:10.770Z,78.80
2022-11-24T12:04:54.035Z,70.90
2022-11-24T12:07:51.164Z,80.60
2022-11-24T12:11:06.465Z,84.07
2022-11-24T12:13:44.461Z,79.45
2022-11-24T12:16:40.223Z,79.47
2022-11-24T12:19:13.148Z,80.40
2022-11-24T12:21:45.728Z,75.30
2022-11-24T12:24:36.759Z,79.50
2022-11-24T12:27:05.239Z,73.40
2022-11-24T12:29:50.812Z,76.60
2022-11-24T12:32:55.257Z,86.47
2022-11-24T12:35:28.868Z,86.53
2022-11-24T12:38:23.616Z,76.70
2022-11-24T12:41:40.276Z,74.68
2022-11-24T12:44:15.064Z,81.57
2022-11-24T12:47:08.391Z,78.85
2022-11-24T12:49:43.942Z,70.72
2022-11-24T12:52:26.076Z,78.55
2022-11-24T12:54:53.755Z,84.80
2022-11-24T12:57:46.429Z,81.00
2022-11-24T13:00:42.410Z,72.30
2022-11-24T13:03:09.759Z,72.03
2022-11-24T13:06:07.677Z,80.75
2022-11-24T13:08:37.059Z,79.55
2022-11-24T13:11:21.936Z,75.35
2022-11-24T13:16:36.124Z,68.18
2022-11-24T13:19:18.317Z,73.75
2022-11-24T13:21:50.252Z,78.38
2022-11-24T13:24:17.782Z,78.28
2022-11-24T13:26:48.692Z,76.97
2022-11-24T13:29:38.176Z,86.60
2022-11-24T13:32:04.935Z,71.45
2022-11-24T13:34:40.577Z,76.20
2022-11-24T13:37:33.720Z,76.25
2022-11-24T13:40:22.783Z,74.00
2022-11-24T13:43:13.116Z,74.95
2022-11-24T13:45:40.296Z,77.35
2022-11-24T13:48:20.092Z,64.78
2022-11-24T13:50:50.432Z,67.95
2022-11-24T13:53:33.221Z,76.20
2022-11-24T13:56:12.897Z,79.93
2022-11-24T13:58:42.858Z,76.72
2022-11-24T14:01:18.374Z,72.57
2022-11-24T14:04:28.693Z,71.40
2022-11-24T14:06:53.227Z,83.22
2022-11-24T14:09:41.198Z,81.32
2022-11-24T14:12:16.228Z,85.72
2022-11-24T14:14:45.090Z,66.78
2022-11-24T14:17:24.007Z,79.43
2022-11-24T14:26:35.666Z,75.20
2022-11-24T14:29:16.292Z,82.13
2022-11-24T14:31:51.820Z,87.07
2022-11-24T14:34:23.017Z,79.03
2022-11-24T14:36:51.430Z,82.22
2022-11-24T14:39:20.601Z,86.25
2022-11-24T14:42:21.486Z,101.47
2022-11-24T14:44:51.207Z,85.47
2022-11-24T14:47:38.985Z,91.88
2022-11-24T14:50:15.457Z,88.28
2022-11-24T14:52:45.225Z,93.25
2022-11-24T14:55:28.428Z,95.15
2022-11-24T14:57:55.685Z,85.72
2022-11-24T15:00:27.200Z,94.22
2022-11-24T15:03:18.593Z,90.65
2022-11-24T15:05:55.554Z,89.85
2022-11-24T15:08:24.366Z,81.07
2022-11-24T15:11:00.429Z,88.75
2022-11-24T15:13:37.223Z,96.50
2022-11-24T15:16:15.606Z,75.50
2022-11-24T15:18:43.806Z,84.25
2022-11-24T15:21:18.599Z,73.43
2022-11-24T15:24:15.962Z,70.90
2022-11-24T15:26:43.634Z,83.07
2022-11-24T15:29:13.697Z,65.28
2022-11-24T15:31:43.322Z,77.55
2022-11-24T15:34:14.594Z,84.18
2022-11-24T15:36:41.435Z,85.07
2022-11-24T15:39:08.382Z,79.63
2022-11-24T15:41:35.426Z,109.75
2022-11-24T15:44:02.350Z,97.60
2022-11-24T15:46:30.899Z,86.57
2022-11-24T15:48:58.307Z,92.50
2022-11-24T15:51:26.768Z,101.10
2022-11-24T15:54:00.748Z,107.78
2022-11-24T15:56:35.703Z,104.90
2022-11-24T15:59:03.787Z,106.85
2022-11-24T16:01:32.588Z,107.70
2022-11-24T16:03:59.961Z,100.20
2022-11-24T16:06:26.772Z,93.05
2022-11-24T16:08:54.561Z,104.35
2022-11-24T16:11:22.409Z,107.70
2022-11-24T16:13:53.080Z,99.90
2022-11-24T16:16:21.935Z,117.85
2022-11-24T16:18:48.917Z,101.20
2022-11-24T16:21:16.304Z,115.07
2022-11-24T16:23:43.117Z,98.53
2022-11-24T16:26:10.854Z,102.95
2022-11-24T16:28:37.637Z,102.43
2022-11-24T16:31:04.979Z,89.05
2022-11-24T16:33:32.203Z,94.15
2022-11-24T16:35:59.479Z,97.72
2022-11-24T16:38:26.330Z,110.53
2022-11-24T16:40:54.508Z,130.45
2022-11-24T16:43:21.508Z,109.72
2022-11-24T16:46:18.678Z,98.15
2022-11-24T16:48:47.282Z,98.43
2022-11-24T16:51:15.138Z,111.22
2022-11-24T16:53:42.499Z,100.13
2022-11-24T16:56:09.648Z,118.20
2022-11-24T16:58:41.121Z,125.78
2022-11-24T17:01:10.889Z,102.00
2022-11-24T17:03:38.610Z,101.38
2022-11-24T17:06:07.715Z,119.75
2022-11-24T17:08:36.365Z,108.05
2022-11-24T17:11:23.708Z,108.38
2022-11-24T17:13:51.363Z,98.00
2022-11-24T17:16:21.062Z,104.63
2022-11-24T17:18:48.206Z,110.38
2022-11-24T17:21:20.789Z,109.60
2022-11-24T17:23:47.639Z,119.85
2022-11-24T17:26:16.673Z,109.15
2022-11-24T17:28:44.187Z,109.32
2022-11-24T17:31:32.229Z,95.95
2022-11-24T17:34:00.582Z,101.57
2022-11-24T17:36:29.460Z,112.78
2022-11-24T17:38:56.428Z,104.00
2022-11-24T17:41:23.427Z,107.13
2022-11-24T17:43:55.865Z,100.60
2022-11-24T17:46:24.248Z,112.72
2022-11-24T17:48:51.460Z,101.70
2022-11-24T17:51:20.113Z,143.70
2022-11-24T17:53:49.447Z,130.23
2022-11-24T17:56:23.522Z,117.75
2022-11-24T17:58:55.612Z,109.15
2022-11-24T18:01:22.840Z,110.22
2022-11-24T18:03:53.493Z,100.90
2022-11-24T18:06:21.308Z,104.05
2022-11-24T18:08:48.255Z,87.75
2022-11-24T18:11:24.695Z,117.10
2022-11-24T18:14:00.678Z,96.35
2022-11-24T18:16:30.327Z,101.50
2022-11-24T18:19:14.896Z,97.78
2022-11-24T18:21:43.831Z,98.70
2022-11-24T18:24:12.013Z,90.15
2022-11-24T18:26:40.265Z,106.10
2022-11-24T18:29:08.002Z,99.82
2022-11-24T18:31:36.109Z,105.80
2022-11-24T18:34:04.524Z,97.18
2022-11-24T18:36:31.744Z,107.97
2022-11-24T18:39:06.241Z,99.97
2022-11-24T18:44:03.112Z,102.32
2022-11-24T18:46:30.030Z,110.65
2022-11-24T18:48:56.902Z,113.90
2022-11-24T18:51:23.837Z,100.45
2022-11-24T18:53:54.595Z,103.45
2022-11-24T18:56:21.640Z,105.28
2022-11-24T18:58:52.011Z,111.40
2022-11-24T19:01:22.162Z,111.10
2022-11-24T19:03:51.611Z,107.78
2022-11-24T19:06:21.279Z,123.13
2022-11-24T19:08:49.172Z,98.10
2022-11-24T19:11:21.234Z,108.68
2022-11-24T19:13:49.169Z,107.88
2022-11-24T19:16:17.667Z,107.55
2022-11-24T19:18:48.773Z,113.38
2022-11-24T19:21:19.825Z,99.80
2022-11-24T19:23:46.706Z,103.68
2022-11-24T19:26:13.612Z,117.10
2022-11-24T19:28:40.529Z,98.38
2022-11-24T19:31:10.739Z,106.07
2022-11-24T19:33:38.216Z,94.03
2022-11-24T19:36:16.746Z,99.85
2022-11-24T19:42:31.472Z,97.25
2022-11-24T19:44:58.687Z,110.18
2022-11-24T19:47:25.644Z,89.88
2022-11-24T19:49:52.456Z,108.00
2022-11-24T19:52:19.366Z,114.90
2022-11-24T19:54:46.607Z,98.28
2022-11-24T19:57:13.639Z,95.68
2022-11-24T19:59:40.979Z,99.93
2022-11-24T20:02:08.310Z,105.63
2022-11-24T20:04:38.459Z,103.45
2022-11-24T20:07:05.589Z,107.13
2022-11-24T20:09:32.941Z,102.72
2022-11-24T20:11:59.838Z,92.93
2022-11-24T20:14:26.817Z,112.28
2022-11-24T20:16:54.106Z,101.10
2022-11-24T20:19:21.108Z,104.05
2022-11-24T20:21:50.028Z,94.95
2022-11-24T20:24:19.944Z,84.50
2022-11-24T20:26:52.334Z,104.03
2022-11-24T20:29:19.968Z,90.20
2022-11-24T20:31:49.669Z,91.53
2022-11-24T20:34:17.402Z,97.47
2022-11-24T20:36:46.103Z,95.30
2022-11-24T20:39:20.358Z,99.55
2022-11-24T20:41:47.610Z,107.43
2022-11-24T20:44:16.684Z,136.70
2022-11-24T20:46:44.976Z,118.30
2022-11-24T20:49:15.269Z,130.73
2022-11-24T20:51:47.854Z,106.15
2022-11-24T20:58:02.625Z,127.22
2022-11-24T21:00:29.507Z,112.32
2022-11-24T21:02:57.737Z,138.27
2022-11-24T21:05:24.734Z,100.90
2022-11-24T21:07:51.647Z,97.25
2022-11-24T21:10:18.875Z,93.63
2022-11-24T21:12:45.756Z,85.35
2022-11-24T21:15:12.730Z,108.82
2022-11-24T21:17:40.037Z,102.15
2022-11-24T21:20:07.695Z,80.18
2022-11-24T21:22:35.501Z,83.15
2022-11-24T21:25:02.376Z,94.25
2022-11-24T21:27:29.282Z,91.10
2022-11-24T21:29:56.161Z,79.30
2022-11-24T21:36:11.349Z,78.60
2022-11-24T21:38:38.336Z,89.60
2022-11-24T21:41:07.053Z,87.82
2022-11-24T21:43:34.565Z,90.63
2022-11-24T21:46:02.897Z,80.05
2022-11-24T21:48:30.947Z,79.05
2022-11-24T21:50:59.267Z,84.22
2022-11-24T21:53:29.488Z,77.90
2022-11-24T21:56:01.482Z,87.03
2022-11-24T21:58:29.025Z,88.93
2022-11-24T22:01:05.103Z,94.03
2022-11-24T22:03:32.314Z,83.93
2022-11-24T22:06:00.631Z,84.05
2022-11-24T22:08:29.185Z,81.35
2022-11-24T22:11:07.955Z,90.20
2022-11-24T22:13:35.022Z,87.20
2022-11-24T22:16:03.964Z,95.93
2022-11-24T22:18:33.153Z,88.28
2022-11-24T22:21:01.320Z,89.18
2022-11-24T22:23:28.613Z,95.35
2022-11-24T22:25:55.653Z,91.45
2022-11-24T22:28:22.482Z,101.60
2022-11-24T22:30:49.483Z,93.57
2022-11-24T22:33:16.326Z,99.00
2022-11-24T22:35:43.160Z,96.93
2022-11-24T22:38:10.022Z,101.85
2022-11-24T22:40:36.847Z,96.35
2022-11-24T22:43:04.204Z,87.00
2022-11-24T22:45:31.160Z,101.63
2022-11-24T22:47:58.093Z,93.75
2022-11-24T22:50:25.040Z,109.68
2022-11-24T22:52:51.957Z,105.47
2022-11-24T22:55:18.889Z,109.47
2022-11-24T23:01:27.751Z,99.78
2022-11-24T23:03:55.142Z,93.28
2022-11-24T23:06:28.302Z,94.63
2022-11-24T23:08:55.567Z,90.20
2022-11-24T23:11:31.548Z,93.32
2022-11-24T23:14:02.817Z,84.97
2022-11-24T23:16:30.648Z,97.22
2022-11-24T23:18:58.213Z,100.60
2022-11-24T23:21:25.445Z,104.68
2022-11-24T23:23:53.148Z,95.50
2022-11-24T23:26:22.569Z,104.60
2022-11-24T23:28:49.940Z,101.05
2022-11-24T23:31:21.491Z,85.95
2022-11-24T23:33:48.432Z,88.97
2022-11-24T23:36:17.625Z,93.20
2022-11-24T23:38:45.486Z,101.32
2022-11-24T23:41:15.528Z,90.10
2022-11-24T23:43:43.200Z,84.65
2022-11-24T23:46:11.900Z,98.43
2022-11-24T23:48:39.599Z,105.43
2022-11-24T23:51:16.441Z,100.88
2022-11-24T23:53:44.163Z,96.50
2022-11-24T23:56:16.448Z,87.70
2022-11-24T23:58:44.031Z,92.03
